Time;durP1;ratioP1;P1;durP2;ratioP2;P2;SDS_P1;SDS_P2;PMS_P1;PMS_P2;Temp;Humidity;BMP_temperature;BMP_pressure;BME280_temperature;BME280_humidity;BME280_pressure;Samples;Min_cycle;Max_cycle;Signal;HPM_P1;HPM_P2
2023/05/26 00:03:02;;;;;;;12.43;5.10;;;13.70;99.90;;;;;;5001306;28;20453;-89
2023/05/26 00:44:35;;;;;;;20.33;6.33;;;;;;;;;;4964090;23;20496;-88
2023/05/26 00:47:02;;;;;;;15.57;5.90;;;;;;;;;;4999650;28;20869;-88
2023/05/26 00:49:30;;;;;;;13.87;5.90;;;;;;;;;;5000864;28;20445;-88
2023/05/26 00:51:57;;;;;;;10.50;5.10;;;;;;;;;;4998876;28;20802;-89
2023/05/26 00:54:25;;;;;;;11.63;6.00;;;;;;;;;;4998885;28;20468;-89
2023/05/26 00:56:54;;;;;;;23.93;6.33;;;;;;;;;;4999017;28;20452;-89
2023/05/26 00:59:22;;;;;;;17.23;5.00;;;;;;;;;;5001291;28;20444;-89
2023/05/26 01:01:51;;;;;;;15.57;6.07;;;;;;;;;;5000731;28;20437;-88
2023/05/26 01:04:18;;;;;;;19.23;7.07;;;;;;;;;;5001894;28;21017;-89
2023/05/26 01:06:45;;;;;;;16.80;5.97;;;;;;;;;;5003332;28;20516;-88
2023/05/26 01:09:13;;;;;;;13.67;6.00;;;;;;;;;;5009402;28;20440;-89
2023/05/26 01:11:47;;;;;;;15.57;6.37;;;13.00;1.00;;;;;;5018032;28;20813;-89
2023/05/26 01:14:21;;;;;;;10.20;4.63;;;13.10;1.00;;;;;;5018488;28;20477;-90
2023/05/26 01:16:54;;;;;;;15.63;6.27;;;13.10;1.00;;;;;;5013496;28;20433;-89
2023/05/26 01:19:57;;;;;;;12.20;5.47;;;13.00;1.00;;;;;;5008022;28;20468;-90
2023/05/26 01:22:37;;;;;;;14.83;5.50;;;13.00;1.00;;;;;;5002048;28;20468;-90
2023/05/26 01:25:16;;;;;;;15.13;6.27;;;12.90;1.00;;;;;;5004614;28;20484;-90
2023/05/26 01:27:57;;;;;;;10.00;5.80;;;12.80;1.00;;;;;;5011032;28;20402;-89
2023/05/26 01:30:24;;;;;;;15.70;5.83;;;;;;;;;;5010963;28;20869;-90
2023/05/26 01:32:51;;;;;;;13.70;6.97;;;;;;;;;;4999450;28;20455;-90
2023/05/26 01:35:19;;;;;;;19.37;6.23;;;;;;;;;;4999818;28;20440;-90
2023/05/26 01:37:46;;;;;;;17.13;7.40;;;;;;;;;;4998843;28;20448;-89
2023/05/26 01:40:14;;;;;;;14.60;5.77;;;;;;;;;;4998389;28;20932;-90
2023/05/26 01:42:45;;;;;;;17.33;6.37;;;12.70;1.00;;;;;;5003110;28;20504;-89
2023/05/26 01:45:34;;;;;;;9.90;5.70;;;12.60;1.00;;;;;;5003851;28;20484;-89
2023/05/26 01:52:18;;;;;;;18.40;5.77;;;12.50;1.00;;;;;;4953246;28;20435;-91
2023/05/26 01:58:25;;;;;;;15.27;6.67;;;12.60;1.00;;;;;;4973967;28;20436;-90
2023/05/26 02:01:11;;;;;;;14.47;6.30;;;;;;;;;;4997444;28;20519;-90
2023/05/26 02:23:57;;;;;;;14.07;6.20;;;;;;;;;;5149245;23;21004;-81
2023/05/26 02:29:44;;;;;;;18.83;7.70;;;12.40;1.00;;;;;;4985595;28;20425;-90
2023/05/26 02:32:54;;;;;;;25.83;6.50;;;12.30;1.00;;;;;;5006317;28;20473;-90
2023/05/26 02:39:24;;;;;;;;;;;;;;;;;;;;;
2023/05/26 02:45:19;;;;;;;19.23;7.30;;;;;;;;;;4920476;29;20529;-90
2023/05/26 03:15:12;;;;;;;15.43;6.53;;;12.00;1.00;;;;;;4822460;29;20514;-88
2023/05/26 03:17:39;;;;;;;13.87;6.30;;;;;;;;;;4896145;29;20453;-88
2023/05/26 03:20:21;;;;;;;23.63;6.80;;;;;;;;;;4970768;28;20970;-89
2023/05/26 03:22:55;;;;;;;17.20;6.23;;;;;;;;;;5002432;28;20433;-89
2023/05/26 03:25:22;;;;;;;14.57;5.27;;;;;;;;;;5002453;28;20488;-88
2023/05/26 03:27:49;;;;;;;13.20;5.43;;;;;;;;;;5002727;28;20445;-88
2023/05/26 03:30:18;;;;;;;13.67;5.97;;;12.10;1.00;;;;;;5010577;28;20476;-88
2023/05/26 03:32:47;;;;;;;11.60;5.53;;;;;;;;;;5012235;28;20453;-88
2023/05/26 03:35:16;;;;;;;17.83;7.20;;;;;;;;;;5001975;28;20469;-88
2023/05/26 03:37:43;;;;;;;11.30;5.70;;;;;;;;;;5013488;28;20428;-87
2023/05/26 03:40:12;;;;;;;13.00;5.93;;;;;;;;;;5020392;28;20457;-87
2023/05/26 03:42:39;;;;;;;15.17;5.57;;;;;;;;;;5020623;28;20432;-87
2023/05/26 03:45:07;;;;;;;16.13;6.13;;;;;;;;;;5020473;28;20471;-86
2023/05/26 03:47:37;;;;;;;16.33;5.83;;;12.20;1.00;;;;;;5020627;28;20422;-86
2023/05/26 03:50:05;;;;;;;8.87;5.10;;;;;;;;;;5020412;28;20429;-86
2023/05/26 03:52:35;;;;;;;19.27;6.97;;;12.20;1.00;;;;;;5020229;28;20437;-87
2023/05/26 03:55:03;;;;;;;13.87;5.00;;;;;;;;;;5018750;28;20469;-87
2023/05/26 03:57:32;;;;;;;14.90;5.90;;;;;;;;;;5005780;28;20476;-89
2023/05/26 04:00:03;;;;;;;20.73;6.57;;;12.00;1.00;;;;;;5001188;28;20469;-88
2023/05/26 04:02:30;;;;;;;18.47;5.87;;;;;;;;;;5001132;28;20955;-88
2023/05/26 04:04:59;;;;;;;16.97;6.70;;;12.00;1.00;;;;;;5001550;28;20464;-88
2023/05/26 04:07:28;;;;;;;17.37;6.03;;;12.00;1.00;;;;;;5000999;28;20449;-88
2023/05/26 04:09:55;;;;;;;17.73;5.93;;;;;;;;;;5001536;28;20472;-88
2023/05/26 04:12:23;;;;;;;17.80;7.17;;;;;;;;;;5006045;28;20823;-88
2023/05/26 04:14:52;;;;;;;18.60;6.83;;;;;;;;;;5002180;28;20497;-89
2023/05/26 04:17:20;;;;;;;17.77;6.90;;;;;;;;;;5006614;28;20441;-87
2023/05/26 04:19:47;;;;;;;24.80;6.07;;;;;;;;;;5006670;28;20487;-87
2023/05/26 04:22:15;;;;;;;17.30;6.90;;;;;;;;;;5004872;28;20475;-88
2023/05/26 04:24:42;;;;;;;16.43;6.47;;;;;;;;;;5002259;28;20482;-88
2023/05/26 04:27:11;;;;;;;18.93;6.57;;;12.20;1.00;;;;;;5001838;28;20544;-88
2023/05/26 04:29:39;;;;;;;16.77;7.57;;;12.00;1.00;;;;;;5017712;28;20461;-89
2023/05/26 04:32:08;;;;;;;14.53;6.57;;;12.30;99.90;;;;;;5019469;28;20516;-88
2023/05/26 04:34:37;;;;;;;12.03;5.93;;;;;;;;;;5018855;28;20457;-89
2023/05/26 04:37:05;;;;;;;17.23;6.70;;;;;;;;;;5007934;28;20446;-89
2023/05/26 04:39:33;;;;;;;19.67;5.87;;;;;;;;;;5009147;28;20459;-88
2023/05/26 04:42:02;;;;;;;19.90;7.60;;;;;;;;;;5009317;28;20536;-88
2023/05/26 04:44:30;;;;;;;13.07;5.97;;;;;;;;;;5008407;28;20461;-88
2023/05/26 04:47:03;;;;;;;14.37;5.60;;;12.30;1.00;;;;;;5007846;28;20567;-87
2023/05/26 04:49:32;;;;;;;17.90;5.60;;;;;;;;;;5001925;28;20473;-89
2023/05/26 04:52:01;;;;;;;16.23;5.43;;;;;;;;;;5000704;28;20881;-89
2023/05/26 04:54:42;;;;;;;18.23;6.50;;;;;;;;;;5005808;28;20481;-88
2023/05/26 04:57:09;;;;;;;15.00;4.97;;;;;;;;;;5002407;28;20928;-88
2023/05/26 04:59:39;;;;;;;11.70;5.23;;;;;;;;;;5002875;28;20456;-88
2023/05/26 05:02:11;;;;;;;20.93;7.73;;;12.40;1.00;;;;;;5003881;28;20847;-89
2023/05/26 05:04:45;;;;;;;14.40;5.93;;;;;;;;;;5002299;28;20467;-89
2023/05/26 05:07:14;;;;;;;19.37;6.67;;;;;;;;;;5003924;28;20477;-88
2023/05/26 05:09:46;;;;;;;20.23;6.20;;;;;;;;;;5012511;28;20465;-88
2023/05/26 05:12:18;;;;;;;21.10;7.63;;;;;;;;;;5002709;28;20464;-89
2023/05/26 05:14:54;;;;;;;20.87;7.10;;;;;;;;;;5000849;28;20469;-89
2023/05/26 05:17:25;;;;;;;14.40;5.83;;;;;;;;;;5002406;28;20515;-88
2023/05/26 05:20:00;;;;;;;17.80;7.77;;;;;;;;;;5004311;28;20907;-87
2023/05/26 05:22:27;;;;;;;16.47;5.83;;;;;;;;;;5000720;28;20418;-88
2023/05/26 05:24:59;;;;;;;18.07;7.50;;;;;;;;;;4999435;28;20556;-88
2023/05/26 05:27:26;;;;;;;16.77;6.10;;;;;;;;;;5000149;28;20567;-88
2023/05/26 05:29:55;;;;;;;16.67;6.20;;;;;;;;;;5001780;28;20480;-88
2023/05/26 05:32:23;;;;;;;15.43;5.07;;;;;;;;;;5004214;28;20827;-88
2023/05/26 05:34:52;;;;;;;18.50;6.07;;;;;;;;;;5004255;28;20508;-88
2023/05/26 05:37:26;;;;;;;20.97;5.77;;;;;;;;;;5001848;28;20436;-88
2023/05/26 05:39:56;;;;;;;15.57;5.27;;;;;;;;;;5001794;28;20441;-88
2023/05/26 05:42:25;;;;;;;13.00;5.70;;;12.90;1.00;;;;;;5001763;28;20425;-88
2023/05/26 05:44:54;;;;;;;14.80;5.83;;;;;;;;;;5001777;28;20467;-88
2023/05/26 05:47:22;;;;;;;12.07;5.13;;;;;;;;;;5001150;28;20485;-89
2023/05/26 05:49:49;;;;;;;13.83;5.57;;;;;;;;;;5003661;28;20472;-87
2023/05/26 05:52:23;;;;;;;17.47;6.07;;;13.50;99.90;;;;;;5002651;28;20445;-88
2023/05/26 05:54:50;;;;;;;9.07;5.17;;;;;;;;;;5000831;28;20480;-88
2023/05/26 05:57:23;;;;;;;20.03;6.73;;;;;;;;;;5004289;28;20460;-88
2023/05/26 05:59:54;;;;;;;13.40;5.20;;;;;;;;;;5009305;28;20507;-89
2023/05/26 06:02:23;;;;;;;15.10;5.53;;;;;;;;;;5005177;28;20429;-88
2023/05/26 06:04:50;;;;;;;16.97;6.03;;;;;;;;;;5005062;28;20511;-87
2023/05/26 06:07:17;;;;;;;14.10;5.70;;;;;;;;;;5004923;28;20476;-88
2023/05/26 06:09:47;;;;;;;15.87;5.67;;;;;;;;;;5006468;28;20472;-88
2023/05/26 06:12:14;;;;;;;13.77;7.00;;;;;;;;;;5015086;28;20823;-88
2023/05/26 06:14:42;;;;;;;20.60;7.87;;;;;;;;;;5012639;28;20460;-87
2023/05/26 06:17:13;;;;;;;16.23;6.10;;;;;;;;;;5012392;28;20472;-88
2023/05/26 06:19:40;;;;;;;16.50;5.63;;;;;;;;;;5010358;28;20453;-88
2023/05/26 06:22:11;;;;;;;16.33;6.77;;;;;;;;;;5007025;28;20505;-88
2023/05/26 06:24:38;;;;;;;11.60;5.90;;;;;;;;;;5013166;28;20806;-88
2023/05/26 06:27:06;;;;;;;13.63;5.97;;;;;;;;;;5010746;28;20544;-88
2023/05/26 06:29:33;;;;;;;14.13;5.87;;;;;;;;;;5005980;28;20524;-88
2023/05/26 06:32:01;;;;;;;20.57;5.13;;;;;;;;;;5007433;28;20859;-87
2023/05/26 06:34:30;;;;;;;21.63;6.17;;;;;;;;;;5006494;28;20504;-88
2023/05/26 06:37:00;;;;;;;16.63;6.20;;;;;;;;;;5007039;28;20888;-87
2023/05/26 06:39:27;;;;;;;12.00;4.83;;;;;;;;;;5013999;28;20433;-88
2023/05/26 06:42:17;;;;;;;17.53;6.20;;;;;;;;;;5021128;28;20441;-88
2023/05/26 06:44:44;;;;;;;17.87;6.67;;;13.80;99.90;;;;;;5026615;23;20492;-85
2023/05/26 06:47:11;;;;;;;17.87;5.90;;;14.00;1.00;;;;;;5013749;28;20472;-86
2023/05/26 06:49:39;;;;;;;27.27;5.73;;;14.10;1.00;;;;;;4999833;28;20434;-87
2023/05/26 06:52:06;;;;;;;18.13;5.90;;;14.10;1.00;;;;;;4999602;28;20437;-87
2023/05/26 06:54:33;;;;;;;16.67;5.13;;;14.10;1.00;;;;;;4999538;28;20548;-87
2023/05/26 06:57:00;;;;;;;15.40;5.37;;;14.10;1.00;;;;;;4998747;28;20531;-87
2023/05/26 06:59:27;;;;;;;14.77;4.67;;;14.30;1.00;;;;;;5001095;28;20560;-88
2023/05/26 07:01:54;;;;;;;24.43;6.00;;;14.30;99.90;;;;;;4999597;28;20475;-87
2023/05/26 07:04:21;;;;;;;13.30;6.00;;;14.60;1.00;;;;;;4998428;28;20480;-87
2023/05/26 07:06:50;;;;;;;10.57;5.00;;;14.40;99.90;;;;;;4999019;28;20482;-87
2023/05/26 07:09:16;;;;;;;20.43;7.03;;;14.40;99.90;;;;;;4999307;28;20476;-87
2023/05/26 07:11:43;;;;;;;22.37;5.07;;;14.60;1.00;;;;;;4999284;28;20455;-87
2023/05/26 07:14:10;;;;;;;15.83;6.17;;;14.70;1.00;;;;;;4999763;28;20454;-86
2023/05/26 07:16:37;;;;;;;18.83;5.50;;;14.70;1.00;;;;;;5007367;28;20500;-86
2023/05/26 07:19:04;;;;;;;12.93;4.50;;;14.80;1.00;;;;;;5019801;28;20425;-86
2023/05/26 07:21:31;;;;;;;11.30;5.23;;;14.80;99.90;;;;;;5018003;28;20429;-86
2023/05/26 07:23:59;;;;;;;14.83;5.30;;;14.80;1.00;;;;;;5017537;28;20460;-86
2023/05/26 07:26:26;;;;;;;13.57;5.77;;;14.70;99.90;;;;;;5011190;28;20520;-87
2023/05/26 07:28:53;;;;;;;18.20;6.77;;;14.90;99.90;;;;;;5001945;28;20473;-87
2023/05/26 07:31:20;;;;;;;13.87;5.70;;;14.90;99.90;;;;;;5001746;28;20453;-87
2023/05/26 07:33:47;;;;;;;15.93;5.00;;;14.90;99.90;;;;;;5000402;28;20480;-86
2023/05/26 07:36:14;;;;;;;14.63;5.00;;;15.00;99.90;;;;;;5007783;28;20465;-86
2023/05/26 07:38:41;;;;;;;14.47;4.43;;;15.10;99.90;;;;;;5007781;28;20943;-86
2023/05/26 07:41:09;;;;;;;13.73;4.60;;;15.20;99.90;;;;;;5000525;28;20451;-86
2023/05/26 07:43:36;;;;;;;16.87;4.70;;;15.20;99.90;;;;;;4999422;28;20543;-86
2023/05/26 07:46:03;;;;;;;13.60;5.30;;;15.30;99.90;;;;;;4999239;28;20567;-86
2023/05/26 07:48:30;;;;;;;13.13;5.40;;;15.30;99.90;;;;;;4998841;28;20539;-87
2023/05/26 07:50:57;;;;;;;17.70;5.07;;;15.40;99.90;;;;;;4999329;28;20944;-86
2023/05/26 07:53:24;;;;;;;16.37;5.37;;;15.60;1.00;;;;;;4998901;28;20452;-86
2023/05/26 07:55:51;;;;;;;17.70;5.30;;;15.40;99.90;;;;;;4998424;28;20995;-86
2023/05/26 07:58:28;;;;;;;21.00;5.07;;;14.90;1.00;;;;;;4999189;28;20532;-88
2023/05/26 08:00:55;;;;;;;15.83;5.40;;;15.40;99.90;;;;;;4998168;28;20829;-88
2023/05/26 08:03:22;;;;;;;16.67;5.53;;;15.50;99.90;;;;;;4998319;28;20521;-87
2023/05/26 08:05:49;;;;;;;20.43;5.90;;;15.40;99.90;;;;;;4998303;28;20472;-88
2023/05/26 08:08:16;;;;;;;22.30;5.77;;;15.30;99.90;;;;;;4998022;28;20501;-87
2023/05/26 08:10:43;;;;;;;18.53;6.20;;;15.40;99.90;;;;;;4999047;28;20540;-87
2023/05/26 08:13:10;;;;;;;19.37;5.67;;;;;;;;;;4998371;28;20513;-87
2023/05/26 08:15:38;;;;;;;15.70;4.77;;;15.70;1.00;;;;;;4997553;28;21065;-87
2023/05/26 08:18:05;;;;;;;7.30;3.67;;;15.10;1.00;;;;;;4997618;28;20487;-87
2023/05/26 08:20:32;;;;;;;16.60;4.70;;;15.40;99.90;;;;;;4999321;28;20459;-87
2023/05/26 08:22:59;;;;;;;12.17;4.37;;;15.40;99.90;;;;;;4997737;28;20455;-86
2023/05/26 08:25:26;;;;;;;11.30;4.53;;;15.40;99.90;;;;;;4996974;28;20469;-87
2023/05/26 08:27:53;;;;;;;15.17;5.10;;;15.40;99.90;;;;;;5004942;28;20488;-86
2023/05/26 08:30:20;;;;;;;15.37;5.03;;;15.50;99.90;;;;;;5012223;28;20456;-86
2023/05/26 08:32:48;;;;;;;14.83;6.30;;;15.50;99.90;;;;;;5018752;28;20437;-85
2023/05/26 08:35:15;;;;;;;9.87;4.43;;;15.70;99.90;;;;;;5018303;28;20476;-86
2023/05/26 08:37:41;;;;;;;11.57;5.00;;;15.70;99.90;;;;;;5010628;28;20516;-87
2023/05/26 08:40:11;;;;;;;14.27;4.90;;;15.80;99.90;;;;;;5001721;28;20539;-87
2023/05/26 08:42:44;;;;;;;15.47;5.50;;;16.00;99.90;;;;;;4998431;28;20445;-87
2023/05/26 08:45:13;;;;;;;12.47;5.57;;;16.00;99.90;;;;;;4997705;28;20485;-87
2023/05/26 08:47:42;;;;;;;14.13;4.17;;;16.10;99.90;;;;;;4998946;28;20496;-87
2023/05/26 08:50:12;;;;;;;9.87;4.20;;;16.10;99.90;;;;;;5000042;28;20437;-87
2023/05/26 08:52:39;;;;;;;18.63;5.90;;;15.80;99.90;;;;;;5003700;28;20448;-87
2023/05/26 08:55:07;;;;;;;27.83;4.87;;;15.90;1.00;;;;;;5000175;28;20508;-87
2023/05/26 08:57:41;;;;;;;14.97;5.37;;;15.60;1.00;;;;;;5013701;28;20452;-87
2023/05/26 09:00:09;;;;;;;12.53;3.77;;;16.00;99.90;;;;;;5016184;28;20441;-87
2023/05/26 09:02:35;;;;;;;18.03;6.67;;;16.00;99.90;;;;;;4999882;28;20475;-87
2023/05/26 09:05:02;;;;;;;17.80;5.40;;;16.20;99.90;;;;;;4998750;28;20918;-87
2023/05/26 09:07:30;;;;;;;17.70;6.03;;;16.30;99.90;;;;;;5001659;28;20539;-87
2023/05/26 09:10:03;;;;;;;19.77;4.67;;;17.00;1.00;;;;;;4997410;28;20445;-88
2023/05/26 09:12:36;;;;;;;13.60;4.33;;;16.60;99.90;;;;;;4996894;28;20444;-86
2023/05/26 09:15:03;;;;;;;14.80;5.00;;;16.70;99.90;;;;;;4996973;28;20475;-87
2023/05/26 09:17:34;;;;;;;12.13;4.27;;;16.80;99.90;;;;;;4996577;28;20447;-87
2023/05/26 09:20:05;;;;;;;11.57;4.43;;;16.60;99.90;;;;;;4997655;28;20488;-86
2023/05/26 09:22:34;;;;;;;16.93;5.17;;;16.30;99.90;;;;;;4998528;28;20441;-86
2023/05/26 09:25:01;;;;;;;15.53;4.20;;;15.60;1.00;;;;;;4996678;28;20995;-86
2023/05/26 09:27:28;;;;;;;10.73;3.47;;;16.10;99.90;;;;;;4997440;28;20488;-86
2023/05/26 09:29:57;;;;;;;11.70;3.97;;;16.20;99.90;;;;;;4998400;28;20540;-86
2023/05/26 09:32:29;;;;;;;13.50;4.67;;;16.10;99.90;;;;;;4999072;28;20495;-86
2023/05/26 09:34:56;;;;;;;13.67;4.17;;;16.20;99.90;;;;;;5000669;28;20481;-86
2023/05/26 09:37:28;;;;;;;12.33;4.10;;;16.40;99.90;;;;;;5013353;28;20540;-86
2023/05/26 09:39:56;;;;;;;12.40;5.03;;;16.60;99.90;;;;;;5006576;28;20444;-86
2023/05/26 09:42:23;;;;;;;14.33;4.77;;;16.70;99.90;;;;;;5002849;28;20512;-86
2023/05/26 09:44:51;;;;;;;12.57;4.17;;;16.80;99.90;;;;;;5001423;28;20997;-86
2023/05/26 09:47:21;;;;;;;11.53;3.80;;;16.60;1.00;;;;;;5002338;28;20884;-86
2023/05/26 09:49:48;;;;;;;12.00;4.27;;;17.00;99.90;;;;;;5014878;28;21064;-85
2023/05/26 09:52:15;;;;;;;12.90;4.13;;;17.10;99.90;;;;;;5021854;28;20477;-87
2023/05/26 09:54:42;;;;;;;13.63;5.13;;;16.90;99.90;;;;;;5003994;28;20551;-86
2023/05/26 09:57:11;;;;;;;8.40;4.40;;;16.90;99.90;;;;;;5005684;28;20476;-86
2023/05/26 09:59:41;;;;;;;21.13;5.23;;;16.90;99.90;;;;;;5014338;28;20576;-85
2023/05/26 10:02:18;;;;;;;15.53;4.23;;;17.20;1.00;;;;;;5016964;28;20456;-86
2023/05/26 10:04:45;;;;;;;10.63;4.20;;;17.00;99.90;;;;;;5011987;28;20503;-86
2023/05/26 10:07:13;;;;;;;10.60;4.47;;;17.10;99.90;;;;;;5005447;28;20492;-85
2023/05/26 10:09:41;;;;;;;12.00;4.20;;;17.20;99.90;;;;;;5005736;28;20543;-86
2023/05/26 10:12:11;;;;;;;10.77;4.13;;;17.60;1.00;;;;;;5003160;28;20453;-85
2023/05/26 10:14:38;;;;;;;10.83;3.90;;;17.40;1.00;;;;;;5003385;28;20816;-85
2023/05/26 10:17:05;;;;;;;8.50;4.20;;;17.30;99.90;;;;;;5004114;28;21003;-86
2023/05/26 10:19:32;;;;;;;9.83;3.50;;;17.40;99.90;;;;;;5005006;28;20456;-86
2023/05/26 10:22:05;;;;;;;14.83;4.33;;;17.30;99.90;;;;;;5004186;28;20472;-86
2023/05/26 10:24:38;;;;;;;13.70;3.77;;;17.00;1.00;;;;;;5002171;28;20878;-86
2023/05/26 10:27:11;;;;;;;8.73;3.53;;;17.50;1.00;;;;;;5003758;28;20492;-86
2023/05/26 10:30:16;;;;;;;11.30;3.77;;;17.40;1.00;;;;;;5005003;28;20435;-87
2023/05/26 10:32:49;;;;;;;6.00;3.00;;;17.50;99.90;;;;;;5004329;28;20457;-87
2023/05/26 10:35:29;;;;;;;8.10;4.63;;;17.50;99.90;;;;;;5004160;28;20469;-86
2023/05/26 10:38:14;;;;;;;7.33;2.83;;;17.60;99.90;;;;;;5009722;28;20425;-86
2023/05/26 10:40:44;;;;;;;7.67;4.00;;;17.70;99.90;;;;;;5007252;28;20432;-86
2023/05/26 10:43:21;;;;;;;10.67;4.27;;;17.80;99.90;;;;;;5006659;28;20441;-85
2023/05/26 10:45:53;;;;;;;11.30;4.00;;;17.80;99.90;;;;;;5004064;28;20481;-85
2023/05/26 10:48:20;;;;;;;9.27;3.70;;;17.80;99.90;;;;;;5002581;28;20465;-86
2023/05/26 10:51:24;;;;;;;11.70;3.60;;;17.90;99.90;;;;;;5000062;28;20508;-86
2023/05/26 10:53:51;;;;;;;7.63;3.83;;;17.90;99.90;;;;;;5000587;28;20433;-86
2023/05/26 10:56:25;;;;;;;10.80;3.70;;;17.80;99.90;;;;;;5000142;28;20485;-86
2023/05/26 10:58:57;;;;;;;6.70;3.73;;;17.90;99.90;;;;;;5000745;28;20437;-87
2023/05/26 11:01:31;;;;;;;10.23;3.80;;;18.00;99.90;;;;;;4999352;28;20496;-86
2023/05/26 11:04:08;;;;;;;9.60;3.60;;;18.00;99.90;;;;;;4999358;28;20962;-87
2023/05/26 11:06:44;;;;;;;7.63;3.03;;;17.90;99.90;;;;;;5006479;28;20986;-86
2023/05/26 11:09:12;;;;;;;10.23;3.67;;;18.00;99.90;;;;;;5000550;28;20534;-87
2023/05/26 11:11:50;;;;;;;11.33;4.00;;;17.90;99.90;;;;;;5001359;28;20532;-86
2023/05/26 11:14:23;;;;;;;11.17;3.90;;;17.90;99.90;;;;;;5000867;28;20451;-86
2023/05/26 11:16:52;;;;;;;7.63;3.70;;;;;;;;;;5000492;28;20440;-87
2023/05/26 11:19:29;;;;;;;8.67;3.20;;;17.80;99.90;;;;;;5001963;28;20459;-87
2023/05/26 11:21:56;;;;;;;8.30;3.90;;;18.00;99.90;;;;;;5000815;28;20437;-87
2023/05/26 11:24:23;;;;;;;7.60;4.20;;;18.10;99.90;;;;;;4999280;28;20445;-86
2023/05/26 11:26:50;;;;;;;13.80;4.83;;;18.00;99.90;;;;;;5000518;28;20449;-86
2023/05/26 11:29:17;;;;;;;14.10;4.00;;;18.00;99.90;;;;;;4999356;28;20580;-86
2023/05/26 11:31:48;;;;;;;11.67;4.10;;;18.00;99.90;;;;;;4999476;28;20448;-87
2023/05/26 11:34:16;;;;;;;7.37;3.97;;;17.80;99.90;;;;;;5007250;28;20508;-87
2023/05/26 11:36:47;;;;;;;14.37;4.30;;;18.10;99.90;;;;;;5014772;28;20465;-86
2023/05/26 11:39:14;;;;;;;13.60;5.87;;;18.20;99.90;;;;;;5015501;28;20425;-86
2023/05/26 11:41:41;;;;;;;11.93;4.13;;;18.30;99.90;;;;;;5013640;28;20516;-86
2023/05/26 11:44:12;;;;;;;13.87;3.57;;;18.50;1.00;;;;;;5013910;28;20513;-85
2023/05/26 11:46:39;;;;;;;8.07;4.17;;;18.40;99.90;;;;;;5014437;28;20508;-87
2023/05/26 11:49:12;;;;;;;15.20;4.17;;;18.50;99.90;;;;;;5008845;28;20484;-87
2023/05/26 11:51:46;;;;;;;5.87;3.37;;;18.40;99.90;;;;;;5002884;28;20464;-87
2023/05/26 11:54:13;;;;;;;13.33;4.93;;;18.40;99.90;;;;;;5001976;28;20443;-86
2023/05/26 11:56:40;;;;;;;11.07;4.00;;;18.40;99.90;;;;;;5000803;28;20813;-86
2023/05/26 11:59:07;;;;;;;12.43;3.77;;;18.50;99.90;;;;;;5001797;28;20516;-86
2023/05/26 12:01:34;;;;;;;11.93;3.90;;;18.50;99.90;;;;;;5013849;28;20473;-86
2023/05/26 12:04:01;;;;;;;10.90;3.90;;;18.60;99.90;;;;;;5019412;28;20497;-87
2023/05/26 12:06:30;;;;;;;12.70;3.60;;;18.60;99.90;;;;;;5011799;28;20503;-87
2023/05/26 12:09:02;;;;;;;9.00;3.97;;;18.50;99.90;;;;;;5005978;28;20484;-87
2023/05/26 12:11:33;;;;;;;12.83;4.30;;;18.70;99.90;;;;;;5005636;28;20471;-86
2023/05/26 12:14:02;;;;;;;6.80;2.90;;;18.70;99.90;;;;;;5002013;28;20460;-86
2023/05/26 12:16:31;;;;;;;9.60;5.20;;;18.90;99.90;;;;;;5001348;28;20469;-85
2023/05/26 12:19:00;;;;;;;8.37;4.00;;;18.90;99.90;;;;;;4999456;28;21004;-86
2023/05/26 12:21:28;;;;;;;8.83;3.10;;;18.90;99.90;;;;;;4998792;28;20457;-86
2023/05/26 12:23:58;;;;;;;8.37;4.13;;;19.00;99.90;;;;;;4996977;28;20555;-86
2023/05/26 12:26:27;;;;;;;10.43;3.97;;;18.80;99.90;;;;;;4997616;28;20488;-86
2023/05/26 12:29:12;;;;;;;7.80;3.20;;;18.70;1.00;;;;;;5003631;28;20527;-87
2023/05/26 12:31:40;;;;;;;5.90;3.00;;;18.70;99.90;;;;;;5008986;28;20487;-86
2023/05/26 12:34:08;;;;;;;7.13;4.00;;;18.80;99.90;;;;;;5017438;28;20453;-87
2023/05/26 12:36:35;;;;;;;7.10;3.10;;;18.90;99.90;;;;;;5018187;28;20652;-86
2023/05/26 12:39:03;;;;;;;17.50;3.90;;;19.10;99.90;;;;;;5014910;28;20543;-86
2023/05/26 12:41:30;;;;;;;9.13;3.37;;;18.80;99.90;;;;;;5004731;28;20460;-87
2023/05/26 12:43:58;;;;;;;7.67;2.90;;;18.90;99.90;;;;;;5009505;28;20456;-86
2023/05/26 12:46:25;;;;;;;8.63;2.60;;;19.30;1.00;;;;;;5003684;28;20492;-87
2023/05/26 12:48:52;;;;;;;6.30;2.57;;;19.10;99.90;;;;;;5005377;28;20548;-87
2023/05/26 12:51:19;;;;;;;8.60;3.30;;;19.00;99.90;;;;;;5004489;28;20460;-87
2023/05/26 12:53:46;;;;;;;7.07;3.17;;;19.00;99.90;;;;;;5011025;28;20536;-86
2023/05/26 12:56:14;;;;;;;11.13;3.73;;;19.10;99.90;;;;;;5016469;28;20476;-86
2023/05/26 12:58:42;;;;;;;6.03;2.90;;;19.10;99.90;;;;;;5014670;28;20879;-87
2023/05/26 13:01:09;;;;;;;10.60;2.73;;;19.20;99.90;;;;;;4999337;28;20589;-87
2023/05/26 13:03:36;;;;;;;9.77;4.17;;;19.30;99.90;;;;;;4998563;28;20544;-87
2023/05/26 13:06:03;;;;;;;6.17;3.17;;;19.30;99.90;;;;;;4998659;28;20920;-87
2023/05/26 13:08:30;;;;;;;7.47;4.00;;;19.40;99.90;;;;;;4998718;28;20508;-86
2023/05/26 13:10:57;;;;;;;11.53;3.70;;;19.70;1.00;;;;;;4999168;28;20477;-86
2023/05/26 13:13:26;;;;;;;5.90;2.90;;;19.40;99.90;;;;;;4998985;28;20831;-86
2023/05/26 13:15:53;;;;;;;10.70;3.27;;;19.40;99.90;;;;;;4999328;28;20473;-86
2023/05/26 13:18:21;;;;;;;7.60;2.53;;;19.40;99.90;;;;;;4999931;28;20790;-87
2023/05/26 13:20:48;;;;;;;6.20;3.30;;;19.40;99.90;;;;;;4999873;28;20824;-86
2023/05/26 13:23:15;;;;;;;7.17;2.77;;;19.40;99.90;;;;;;4998665;28;20475;-85
2023/05/26 13:25:42;;;;;;;5.50;2.73;;;19.50;99.90;;;;;;5000083;28;20472;-86
2023/05/26 13:28:09;;;;;;;14.63;10.00;;;19.40;99.90;;;;;;4999432;28;20527;-86
2023/05/26 13:30:37;;;;;;;7.80;2.97;;;19.40;99.90;;;;;;5001807;28;20508;-86
2023/05/26 13:33:05;;;;;;;7.47;2.90;;;19.70;99.90;;;;;;5000768;28;20452;-87
2023/05/26 13:35:32;;;;;;;11.43;2.73;;;19.40;99.90;;;;;;5002550;28;21010;-86
2023/05/26 13:37:58;;;;;;;6.87;2.90;;;19.50;99.90;;;;;;5006854;28;20811;-86
2023/05/26 13:40:25;;;;;;;5.77;2.80;;;19.40;99.90;;;;;;5011865;28;20512;-86
2023/05/26 13:42:53;;;;;;;5.57;3.13;;;19.40;99.90;;;;;;5015352;28;20453;-87
2023/05/26 13:45:20;;;;;;;6.37;3.27;;;19.60;99.90;;;;;;5016048;28;20464;-87
2023/05/26 13:47:48;;;;;;;8.73;3.37;;;19.40;99.90;;;;;;5013063;28;20504;-86
2023/05/26 13:50:15;;;;;;;7.90;3.30;;;19.50;99.90;;;;;;5011014;28;20453;-87
2023/05/26 13:52:42;;;;;;;5.90;3.00;;;19.50;99.90;;;;;;5007373;28;20445;-87
2023/05/26 13:55:09;;;;;;;9.33;2.70;;;19.60;99.90;;;;;;5003519;28;20556;-87
2023/05/26 13:57:45;;;;;;;13.70;3.83;;;19.50;1.00;;;;;;5009886;28;20535;-87
2023/05/26 14:00:13;;;;;;;10.50;3.00;;;19.80;99.90;;;;;;5015532;28;20465;-87
2023/05/26 14:02:40;;;;;;;9.57;4.17;;;;;;;;;;5015546;28;20436;-87
2023/05/26 14:05:10;;;;;;;11.33;3.00;;;19.90;99.90;;;;;;5004753;28;20493;-88
2023/05/26 14:07:38;;;;;;;13.20;3.50;;;20.00;99.90;;;;;;5001396;28;20787;-87
2023/05/26 14:10:09;;;;;;;9.40;2.97;;;20.10;99.90;;;;;;5005571;28;20556;-85
2023/05/26 14:12:36;;;;;;;6.90;2.73;;;20.00;99.90;;;;;;5010779;28;20497;-86
2023/05/26 14:15:04;;;;;;;8.53;3.00;;;19.80;99.90;;;;;;5007496;28;20552;-86
2023/05/26 14:17:31;;;;;;;5.90;2.90;;;20.00;99.90;;;;;;5003069;28;20456;-87
2023/05/26 14:19:58;;;;;;;19.13;4.03;;;19.60;99.90;;;;;;5005086;28;20786;-87
2023/05/26 14:22:26;;;;;;;10.23;3.23;;;19.40;99.90;;;;;;5011878;28;21118;-85
2023/05/26 14:24:53;;;;;;;7.13;2.90;;;19.50;99.90;;;;;;5003858;28;21079;-87
2023/05/26 14:27:50;;;;;;;8.83;3.63;;;19.70;1.00;;;;;;5003808;28;20462;-87
2023/05/26 14:30:23;;;;;;;9.00;3.80;;;19.70;99.90;;;;;;5002885;28;20484;-86
2023/05/26 14:32:52;;;;;;;13.20;3.50;;;19.60;99.90;;;;;;5017181;23;20445;-87
2023/05/26 14:35:19;;;;;;;6.93;3.27;;;19.50;99.90;;;;;;5019366;28;20460;-87
2023/05/26 14:37:47;;;;;;;5.40;3.10;;;19.60;99.90;;;;;;5018255;28;20456;-87
2023/05/26 14:40:14;;;;;;;10.70;3.40;;;19.70;99.90;;;;;;5014276;28;20495;-87
2023/05/26 14:42:41;;;;;;;6.30;3.00;;;19.30;1.00;;;;;;5011527;28;20480;-87
2023/05/26 14:45:11;;;;;;;11.90;3.80;;;19.80;99.90;;;;;;5006351;28;20457;-86
2023/05/26 14:47:41;;;;;;;4.30;2.70;;;19.50;99.90;;;;;;5013148;28;20457;-88
2023/05/26 14:50:09;;;;;;;7.00;3.10;;;20.20;99.90;;;;;;5012843;28;20460;-88
2023/05/26 14:52:36;;;;;;;9.30;3.87;;;19.60;1.00;;;;;;5012633;28;20437;-87
2023/05/26 14:55:06;;;;;;;7.83;3.23;;;19.90;99.90;;;;;;5012420;28;20456;-87
2023/05/26 14:57:33;;;;;;;7.80;3.23;;;20.00;99.90;;;;;;5008458;28;20429;-87
2023/05/26 15:00:00;;;;;;;9.47;3.00;;;19.90;99.90;;;;;;5007318;28;20914;-87
2023/05/26 15:02:27;;;;;;;7.37;3.50;;;19.30;99.90;;;;;;5005045;28;20515;-89
2023/05/26 15:04:54;;;;;;;8.40;3.73;;;19.90;99.90;;;;;;5005131;28;20971;-87
2023/05/26 15:07:21;;;;;;;13.30;5.83;;;19.60;99.90;;;;;;5007233;28;20480;-87
2023/05/26 15:09:48;;;;;;;5.63;3.37;;;19.60;99.90;;;;;;5006071;28;20496;-88
2023/05/26 15:12:18;;;;;;;7.83;2.90;;;19.70;99.90;;;;;;5005334;28;20463;-86